sensor_id;sensor_type;location;lat;lon;timestamp;pressure;altitude;pressure_sealevel;temperature;humidity
57644;BME280;43474;46.510;6.686;2023-03-13T00:01:24;96433.41;;;6.56;100.00
57644;BME280;43474;46.510;6.686;2023-03-13T00:03:50;96435.44;;;6.54;100.00
57644;BME280;43474;46.510;6.686;2023-03-13T00:06:16;96439.69;;;6.55;100.00
57644;BME280;43474;46.510;6.686;2023-03-13T00:08:42;96438.75;;;6.36;100.00
57644;BME280;43474;46.510;6.686;2023-03-13T00:11:11;96435.72;;;6.39;100.00
57644;BME280;43474;46.510;6.686;2023-03-13T00:13:37;96439.75;;;6.48;100.00
57644;BME280;43474;46.510;6.686;2023-03-13T00:16:05;96424.78;;;6.42;100.00
57644;BME280;43474;46.510;6.686;2023-03-13T00:18:32;96436.88;;;6.50;100.00
57644;BME280;43474;46.510;6.686;2023-03-13T00:20:59;96436.44;;;6.60;100.00
57644;BME280;43474;46.510;6.686;2023-03-13T00:23:24;96433.78;;;6.66;100.00
57644;BME280;43474;46.510;6.686;2023-03-13T00:26:02;96440.16;;;6.84;100.00
57644;BME280;43474;46.510;6.686;2023-03-13T00:28:29;96438.03;;;6.99;100.00
57644;BME280;43474;46.510;6.686;2023-03-13T00:31:06;96439.38;;;7.08;100.00
57644;BME280;43474;46.510;6.686;2023-03-13T00:33:36;96424.78;;;7.06;100.00
57644;BME280;43474;46.510;6.686;2023-03-13T00:36:04;96435.19;;;7.25;100.00
57644;BME280;43474;46.510;6.686;2023-03-13T00:38:32;96430.38;;;7.22;100.00
57644;BME280;43474;46.510;6.686;2023-03-13T00:41:09;96424.06;;;7.23;100.00
57644;BME280;43474;46.510;6.686;2023-03-13T00:43:39;96421.44;;;7.23;100.00
57644;BME280;43474;46.510;6.686;2023-03-13T00:46:04;96434.50;;;7.37;100.00
57644;BME280;43474;46.510;6.686;2023-03-13T00:48:31;96428.63;;;7.35;100.00
57644;BME280;43474;46.510;6.686;2023-03-13T00:50:58;96439.94;;;7.42;100.00
57644;BME280;43474;46.510;6.686;2023-03-13T00:53:23;96436.44;;;7.48;100.00
57644;BME280;43474;46.510;6.686;2023-03-13T00:56:09;96438.84;;;7.49;100.00
57644;BME280;43474;46.510;6.686;2023-03-13T00:58:37;96435.41;;;7.49;100.00
57644;BME280;43474;46.510;6.686;2023-03-13T01:01:12;96431.75;;;7.50;100.00
57644;BME280;43474;46.510;6.686;2023-03-13T01:03:39;96442.09;;;7.51;100.00
57644;BME280;43474;46.510;6.686;2023-03-13T01:06:09;96439.22;;;7.53;100.00
57644;BME280;43474;46.510;6.686;2023-03-13T01:08:35;96432.81;;;7.67;100.00
57644;BME280;43474;46.510;6.686;2023-03-13T01:11:06;96426.84;;;7.54;100.00
57644;BME280;43474;46.510;6.686;2023-03-13T01:13:32;96429.81;;;7.64;100.00
57644;BME280;43474;46.510;6.686;2023-03-13T01:16:07;96416.88;;;7.56;100.00
57644;BME280;43474;46.510;6.686;2023-03-13T01:18:35;96420.50;;;7.61;100.00
57644;BME280;43474;46.510;6.686;2023-03-13T01:21:01;96415.81;;;7.63;100.00
57644;BME280;43474;46.510;6.686;2023-03-13T01:23:27;96391.91;;;7.58;100.00
57644;BME280;43474;46.510;6.686;2023-03-13T01:25:56;96405.00;;;7.71;100.00
57644;BME280;43474;46.510;6.686;2023-03-13T01:28:23;96378.00;;;7.69;100.00
57644;BME280;43474;46.510;6.686;2023-03-13T01:30:49;96370.91;;;7.70;100.00
57644;BME280;43474;46.510;6.686;2023-03-13T01:33:14;96370.75;;;7.83;100.00
57644;BME280;43474;46.510;6.686;2023-03-13T01:35:40;96362.63;;;7.85;100.00
57644;BME280;43474;46.510;6.686;2023-03-13T01:38:07;96350.47;;;7.84;100.00
57644;BME280;43474;46.510;6.686;2023-03-13T01:40:40;96334.41;;;7.85;100.00
57644;BME280;43474;46.510;6.686;2023-03-13T01:43:26;96353.38;;;7.94;100.00
57644;BME280;43474;46.510;6.686;2023-03-13T01:46:00;96359.47;;;7.94;100.00
57644;BME280;43474;46.510;6.686;2023-03-13T01:51:28;96356.25;;;7.74;100.00
57644;BME280;43474;46.510;6.686;2023-03-13T01:54:03;96369.22;;;7.75;100.00
57644;BME280;43474;46.510;6.686;2023-03-13T01:56:46;96379.09;;;7.80;100.00
57644;BME280;43474;46.510;6.686;2023-03-13T01:59:16;96371.78;;;7.82;100.00
57644;BME280;43474;46.510;6.686;2023-03-13T02:01:45;96393.47;;;7.84;100.00
57644;BME280;43474;46.510;6.686;2023-03-13T02:04:13;96374.19;;;7.84;100.00
57644;BME280;43474;46.510;6.686;2023-03-13T02:06:42;96387.69;;;7.94;100.00
57644;BME280;43474;46.510;6.686;2023-03-13T02:09:12;96395.22;;;7.90;100.00
57644;BME280;43474;46.510;6.686;2023-03-13T02:11:47;96381.84;;;7.92;100.00
57644;BME280;43474;46.510;6.686;2023-03-13T02:14:18;96373.16;;;7.85;100.00
57644;BME280;43474;46.510;6.686;2023-03-13T02:16:45;96348.34;;;7.92;100.00
57644;BME280;43474;46.510;6.686;2023-03-13T02:19:37;96355.75;;;7.84;100.00
57644;BME280;43474;46.510;6.686;2023-03-13T02:25:15;96352.22;;;7.71;100.00
57644;BME280;43474;46.510;6.686;2023-03-13T02:27:44;96361.25;;;7.82;100.00
57644;BME280;43474;46.510;6.686;2023-03-13T02:30:12;96372.38;;;7.84;100.00
57644;BME280;43474;46.510;6.686;2023-03-13T02:32:39;96353.91;;;7.84;100.00
57644;BME280;43474;46.510;6.686;2023-03-13T02:35:08;96360.06;;;7.78;100.00
57644;BME280;43474;46.510;6.686;2023-03-13T02:37:34;96342.03;;;7.75;100.00
57644;BME280;43474;46.510;6.686;2023-03-13T02:40:02;96325.78;;;7.78;100.00
57644;BME280;43474;46.510;6.686;2023-03-13T02:42:30;96293.47;;;7.64;100.00
57644;BME280;43474;46.510;6.686;2023-03-13T02:44:55;96292.81;;;7.69;100.00
57644;BME280;43474;46.510;6.686;2023-03-13T02:47:22;96290.06;;;7.75;100.00
57644;BME280;43474;46.510;6.686;2023-03-13T02:49:48;96292.50;;;7.77;100.00
57644;BME280;43474;46.510;6.686;2023-03-13T02:52:32;96274.09;;;7.70;100.00
57644;BME280;43474;46.510;6.686;2023-03-13T02:55:05;96268.50;;;7.67;100.00
57644;BME280;43474;46.510;6.686;2023-03-13T02:57:32;96266.56;;;7.74;100.00
57644;BME280;43474;46.510;6.686;2023-03-13T02:59:59;96271.84;;;7.74;100.00
57644;BME280;43474;46.510;6.686;2023-03-13T03:02:25;96276.09;;;7.75;100.00
57644;BME280;43474;46.510;6.686;2023-03-13T03:04:51;96275.41;;;7.80;100.00
57644;BME280;43474;46.510;6.686;2023-03-13T03:07:16;96251.63;;;7.68;100.00
57644;BME280;43474;46.510;6.686;2023-03-13T03:09:42;96280.13;;;7.77;100.00
57644;BME280;43474;46.510;6.686;2023-03-13T03:12:08;96287.94;;;7.84;100.00
57644;BME280;43474;46.510;6.686;2023-03-13T03:14:33;96280.94;;;7.78;100.00
57644;BME280;43474;46.510;6.686;2023-03-13T03:16:59;96275.38;;;7.68;100.00
57644;BME280;43474;46.510;6.686;2023-03-13T03:19:25;96278.91;;;7.62;100.00
57644;BME280;43474;46.510;6.686;2023-03-13T03:21:50;96273.41;;;7.63;100.00
57644;BME280;43474;46.510;6.686;2023-03-13T03:24:16;96262.63;;;7.65;100.00
57644;BME280;43474;46.510;6.686;2023-03-13T03:26:41;96278.94;;;7.73;100.00
57644;BME280;43474;46.510;6.686;2023-03-13T03:29:07;96285.53;;;7.83;100.00
57644;BME280;43474;46.510;6.686;2023-03-13T03:31:33;96273.91;;;7.72;100.00
57644;BME280;43474;46.510;6.686;2023-03-13T03:33:59;96268.16;;;7.75;100.00
57644;BME280;43474;46.510;6.686;2023-03-13T03:36:25;96265.47;;;7.82;100.00
57644;BME280;43474;46.510;6.686;2023-03-13T03:38:50;96275.34;;;7.86;100.00
57644;BME280;43474;46.510;6.686;2023-03-13T03:41:16;96265.09;;;7.78;100.00
57644;BME280;43474;46.510;6.686;2023-03-13T03:43:43;96254.53;;;7.78;100.00
57644;BME280;43474;46.510;6.686;2023-03-13T03:46:10;96259.97;;;7.83;100.00
57644;BME280;43474;46.510;6.686;2023-03-13T03:48:36;96260.19;;;7.82;100.00
57644;BME280;43474;46.510;6.686;2023-03-13T03:51:02;96247.72;;;7.70;100.00
57644;BME280;43474;46.510;6.686;2023-03-13T03:53:28;96253.59;;;7.72;100.00
57644;BME280;43474;46.510;6.686;2023-03-13T03:55:54;96252.34;;;7.75;100.00
57644;BME280;43474;46.510;6.686;2023-03-13T03:58:19;96256.00;;;7.92;100.00
57644;BME280;43474;46.510;6.686;2023-03-13T04:00:46;96253.47;;;7.97;100.00
57644;BME280;43474;46.510;6.686;2023-03-13T04:03:13;96260.41;;;8.10;100.00
57644;BME280;43474;46.510;6.686;2023-03-13T04:05:39;96267.09;;;8.24;100.00
57644;BME280;43474;46.510;6.686;2023-03-13T04:08:05;96263.66;;;8.24;100.00
57644;BME280;43474;46.510;6.686;2023-03-13T04:10:31;96260.47;;;8.22;100.00
57644;BME280;43474;46.510;6.686;2023-03-13T04:12:56;96244.75;;;8.27;100.00
57644;BME280;43474;46.510;6.686;2023-03-13T04:15:22;96261.75;;;8.31;100.00
57644;BME280;43474;46.510;6.686;2023-03-13T04:17:48;96276.72;;;8.37;100.00
57644;BME280;43474;46.510;6.686;2023-03-13T04:20:14;96283.59;;;8.38;100.00
57644;BME280;43474;46.510;6.686;2023-03-13T04:22:40;96273.41;;;8.42;100.00
57644;BME280;43474;46.510;6.686;2023-03-13T04:25:07;96280.28;;;8.43;100.00
57644;BME280;43474;46.510;6.686;2023-03-13T04:27:33;96280.94;;;8.38;100.00
57644;BME280;43474;46.510;6.686;2023-03-13T04:29:59;96282.00;;;8.37;100.00
57644;BME280;43474;46.510;6.686;2023-03-13T04:32:24;96295.31;;;8.42;100.00
57644;BME280;43474;46.510;6.686;2023-03-13T04:34:50;96298.22;;;8.52;100.00
57644;BME280;43474;46.510;6.686;2023-03-13T04:37:16;96287.28;;;8.49;100.00
57644;BME280;43474;46.510;6.686;2023-03-13T04:39:42;96284.31;;;8.45;100.00
57644;BME280;43474;46.510;6.686;2023-03-13T04:42:09;96289.94;;;8.49;100.00
57644;BME280;43474;46.510;6.686;2023-03-13T04:44:35;96293.25;;;8.44;100.00
57644;BME280;43474;46.510;6.686;2023-03-13T04:47:01;96300.38;;;8.44;100.00
57644;BME280;43474;46.510;6.686;2023-03-13T04:49:27;96290.28;;;8.41;100.00
57644;BME280;43474;46.510;6.686;2023-03-13T04:51:52;96293.94;;;8.40;100.00
57644;BME280;43474;46.510;6.686;2023-03-13T04:54:18;96293.75;;;8.35;100.00
57644;BME280;43474;46.510;6.686;2023-03-13T04:56:43;96282.00;;;8.37;100.00
57644;BME280;43474;46.510;6.686;2023-03-13T04:59:13;96279.19;;;8.32;100.00
57644;BME280;43474;46.510;6.686;2023-03-13T05:01:39;96277.34;;;8.33;100.00
57644;BME280;43474;46.510;6.686;2023-03-13T05:04:05;96278.72;;;8.35;100.00
57644;BME280;43474;46.510;6.686;2023-03-13T05:06:31;96281.59;;;8.34;100.00
57644;BME280;43474;46.510;6.686;2023-03-13T05:08:57;96288.03;;;8.26;100.00
57644;BME280;43474;46.510;6.686;2023-03-13T05:11:22;96279.50;;;8.24;100.00
57644;BME280;43474;46.510;6.686;2023-03-13T05:13:48;96287.41;;;8.42;100.00
57644;BME280;43474;46.510;6.686;2023-03-13T05:16:14;96291.88;;;8.42;100.00
57644;BME280;43474;46.510;6.686;2023-03-13T05:18:39;96280.28;;;8.43;100.00
57644;BME280;43474;46.510;6.686;2023-03-13T05:21:05;96283.97;;;8.42;100.00
57644;BME280;43474;46.510;6.686;2023-03-13T05:23:32;96288.19;;;8.43;100.00
57644;BME280;43474;46.510;6.686;2023-03-13T05:25:58;96288.44;;;8.41;100.00
57644;BME280;43474;46.510;6.686;2023-03-13T05:28:24;96287.84;;;8.39;100.00
57644;BME280;43474;46.510;6.686;2023-03-13T05:30:49;96276.88;;;8.24;100.00
57644;BME280;43474;46.510;6.686;2023-03-13T05:33:15;96282.06;;;8.31;100.00
57644;BME280;43474;46.510;6.686;2023-03-13T05:35:41;96294.44;;;8.30;100.00
57644;BME280;43474;46.510;6.686;2023-03-13T05:38:07;96289.09;;;8.37;100.00
57644;BME280;43474;46.510;6.686;2023-03-13T05:40:32;96281.09;;;8.43;100.00
57644;BME280;43474;46.510;6.686;2023-03-13T05:42:58;96275.81;;;8.43;100.00
57644;BME280;43474;46.510;6.686;2023-03-13T05:45:23;96275.13;;;8.48;100.00
57644;BME280;43474;46.510;6.686;2023-03-13T05:47:50;96259.28;;;8.48;100.00
57644;BME280;43474;46.510;6.686;2023-03-13T05:50:15;96254.34;;;8.51;100.00
57644;BME280;43474;46.510;6.686;2023-03-13T05:52:41;96241.72;;;8.53;100.00
57644;BME280;43474;46.510;6.686;2023-03-13T05:55:07;96247.47;;;8.50;100.00
57644;BME280;43474;46.510;6.686;2023-03-13T05:57:33;96242.88;;;8.58;100.00
57644;BME280;43474;46.510;6.686;2023-03-13T05:59:58;96249.88;;;8.52;100.00
57644;BME280;43474;46.510;6.686;2023-03-13T06:02:24;96256.19;;;8.63;100.00
57644;BME280;43474;46.510;6.686;2023-03-13T06:04:50;96246.88;;;8.60;100.00
57644;BME280;43474;46.510;6.686;2023-03-13T06:07:15;96237.03;;;8.56;100.00
57644;BME280;43474;46.510;6.686;2023-03-13T06:09:41;96224.03;;;8.54;100.00
57644;BME280;43474;46.510;6.686;2023-03-13T06:12:08;96235.31;;;8.73;100.00
57644;BME280;43474;46.510;6.686;2023-03-13T06:14:33;96217.25;;;8.70;100.00
57644;BME280;43474;46.510;6.686;2023-03-13T06:16:59;96239.09;;;8.77;100.00
57644;BME280;43474;46.510;6.686;2023-03-13T06:19:25;96244.97;;;8.79;100.00
57644;BME280;43474;46.510;6.686;2023-03-13T06:21:51;96230.81;;;8.73;100.00
57644;BME280;43474;46.510;6.686;2023-03-13T06:24:16;96228.78;;;8.87;100.00
57644;BME280;43474;46.510;6.686;2023-03-13T06:26:42;96219.47;;;8.96;100.00
57644;BME280;43474;46.510;6.686;2023-03-13T06:29:09;96215.44;;;8.94;100.00
57644;BME280;43474;46.510;6.686;2023-03-13T06:31:35;96203.38;;;8.98;100.00
57644;BME280;43474;46.510;6.686;2023-03-13T06:34:00;96198.53;;;9.06;100.00
57644;BME280;43474;46.510;6.686;2023-03-13T06:36:26;96204.72;;;9.12;100.00
57644;BME280;43474;46.510;6.686;2023-03-13T06:38:51;96203.00;;;9.18;100.00
57644;BME280;43474;46.510;6.686;2023-03-13T06:41:17;96193.91;;;9.25;100.00
57644;BME280;43474;46.510;6.686;2023-03-13T06:43:43;96209.19;;;9.35;100.00
57644;BME280;43474;46.510;6.686;2023-03-13T06:46:16;96201.00;;;9.37;100.00
57644;BME280;43474;46.510;6.686;2023-03-13T06:48:42;96195.56;;;9.43;100.00
57644;BME280;43474;46.510;6.686;2023-03-13T06:51:10;96189.72;;;9.41;100.00
57644;BME280;43474;46.510;6.686;2023-03-13T06:53:36;96192.22;;;9.48;100.00
57644;BME280;43474;46.510;6.686;2023-03-13T06:56:02;96193.38;;;9.52;100.00
57644;BME280;43474;46.510;6.686;2023-03-13T06:58:28;96178.56;;;9.51;100.00
57644;BME280;43474;46.510;6.686;2023-03-13T07:00:53;96184.25;;;9.59;100.00
57644;BME280;43474;46.510;6.686;2023-03-13T07:03:19;96189.75;;;9.70;100.00
57644;BME280;43474;46.510;6.686;2023-03-13T07:05:44;96182.28;;;9.67;100.00
57644;BME280;43474;46.510;6.686;2023-03-13T07:08:10;96187.59;;;9.83;100.00
57644;BME280;43474;46.510;6.686;2023-03-13T07:10:35;96156.66;;;9.84;100.00
57644;BME280;43474;46.510;6.686;2023-03-13T07:13:01;96164.91;;;9.88;100.00
57644;BME280;43474;46.510;6.686;2023-03-13T07:15:27;96163.88;;;9.89;100.00
57644;BME280;43474;46.510;6.686;2023-03-13T07:17:55;96176.03;;;10.01;100.00
57644;BME280;43474;46.510;6.686;2023-03-13T07:20:21;96180.84;;;10.04;100.00
57644;BME280;43474;46.510;6.686;2023-03-13T07:22:50;96167.38;;;10.06;100.00
57644;BME280;43474;46.510;6.686;2023-03-13T07:25:18;96182.94;;;10.19;100.00
57644;BME280;43474;46.510;6.686;2023-03-13T07:27:44;96186.03;;;10.28;100.00
57644;BME280;43474;46.510;6.686;2023-03-13T07:30:10;96167.56;;;10.33;100.00
57644;BME280;43474;46.510;6.686;2023-03-13T07:32:35;96163.47;;;10.42;100.00
57644;BME280;43474;46.510;6.686;2023-03-13T07:35:01;96166.53;;;10.51;100.00
57644;BME280;43474;46.510;6.686;2023-03-13T07:37:28;96166.28;;;10.69;100.00
57644;BME280;43474;46.510;6.686;2023-03-13T07:39:54;96152.91;;;10.81;100.00
57644;BME280;43474;46.510;6.686;2023-03-13T07:42:19;96161.34;;;10.95;100.00
57644;BME280;43474;46.510;6.686;2023-03-13T07:44:45;96166.63;;;10.95;100.00
57644;BME280;43474;46.510;6.686;2023-03-13T07:47:11;96148.06;;;10.95;100.00
57644;BME280;43474;46.510;6.686;2023-03-13T07:49:36;96135.75;;;11.05;100.00
57644;BME280;43474;46.510;6.686;2023-03-13T07:52:06;96146.03;;;11.24;100.00
57644;BME280;43474;46.510;6.686;2023-03-13T07:54:32;96145.81;;;11.25;100.00
57644;BME280;43474;46.510;6.686;2023-03-13T07:56:57;96140.56;;;11.30;100.00
57644;BME280;43474;46.510;6.686;2023-03-13T07:59:23;96131.28;;;11.33;100.00
57644;BME280;43474;46.510;6.686;2023-03-13T08:01:48;96130.22;;;11.56;100.00
57644;BME280;43474;46.510;6.686;2023-03-13T08:04:14;96127.91;;;11.86;100.00
57644;BME280;43474;46.510;6.686;2023-03-13T08:06:40;96123.75;;;12.70;100.00
57644;BME280;43474;46.510;6.686;2023-03-13T08:09:06;96113.06;;;14.16;99.80
57644;BME280;43474;46.510;6.686;2023-03-13T08:11:32;96102.50;;;15.16;88.00
57644;BME280;43474;46.510;6.686;2023-03-13T08:13:58;96088.84;;;15.28;86.88
57644;BME280;43474;46.510;6.686;2023-03-13T08:16:26;96089.78;;;14.98;85.62
57644;BME280;43474;46.510;6.686;2023-03-13T08:18:54;96114.56;;;14.98;81.22
57644;BME280;43474;46.510;6.686;2023-03-13T08:21:23;96101.53;;;14.82;84.12
57644;BME280;43474;46.510;6.686;2023-03-13T08:23:52;96123.69;;;14.82;85.24
57644;BME280;43474;46.510;6.686;2023-03-13T08:26:20;96124.78;;;14.40;81.96
57644;BME280;43474;46.510;6.686;2023-03-13T08:28:51;96115.72;;;14.26;83.63
57644;BME280;43474;46.510;6.686;2023-03-13T08:31:21;96114.91;;;14.05;85.08
57644;BME280;43474;46.510;6.686;2023-03-13T08:33:47;96103.19;;;14.06;82.21
57644;BME280;43474;46.510;6.686;2023-03-13T08:36:15;96102.63;;;14.76;83.95
57644;BME280;43474;46.510;6.686;2023-03-13T08:38:42;96110.38;;;15.47;84.04
57644;BME280;43474;46.510;6.686;2023-03-13T08:41:21;96095.53;;;15.20;77.66
57644;BME280;43474;46.510;6.686;2023-03-13T08:43:47;96090.06;;;15.46;84.61
57644;BME280;43474;46.510;6.686;2023-03-13T08:46:14;96113.13;;;15.32;77.37
57644;BME280;43474;46.510;6.686;2023-03-13T08:48:40;96097.41;;;15.20;79.49
57644;BME280;43474;46.510;6.686;2023-03-13T08:51:08;96094.69;;;15.30;75.22
57644;BME280;43474;46.510;6.686;2023-03-13T08:53:35;96075.28;;;15.14;74.11
57644;BME280;43474;46.510;6.686;2023-03-13T08:56:02;96063.09;;;14.98;79.87
57644;BME280;43474;46.510;6.686;2023-03-13T08:58:29;96037.56;;;15.75;72.78
57644;BME280;43474;46.510;6.686;2023-03-13T09:01:00;96040.28;;;16.05;68.58
57644;BME280;43474;46.510;6.686;2023-03-13T09:03:26;96046.63;;;16.14;71.45
57644;BME280;43474;46.510;6.686;2023-03-13T09:05:51;96061.69;;;16.34;72.69
57644;BME280;43474;46.510;6.686;2023-03-13T09:08:17;96063.94;;;16.50;70.88
57644;BME280;43474;46.510;6.686;2023-03-13T09:10:42;96044.38;;;15.97;71.00
57644;BME280;43474;46.510;6.686;2023-03-13T09:13:08;96042.75;;;15.96;70.70
57644;BME280;43474;46.510;6.686;2023-03-13T09:15:33;96026.78;;;15.51;72.83
57644;BME280;43474;46.510;6.686;2023-03-13T09:17:59;96022.66;;;15.25;73.69
57644;BME280;43474;46.510;6.686;2023-03-13T09:20:24;96034.75;;;15.07;76.32
57644;BME280;43474;46.510;6.686;2023-03-13T09:22:50;96027.41;;;14.79;77.47
57644;BME280;43474;46.510;6.686;2023-03-13T09:25:16;96032.50;;;14.70;79.03
57644;BME280;43474;46.510;6.686;2023-03-13T09:27:41;96015.22;;;14.47;81.10
57644;BME280;43474;46.510;6.686;2023-03-13T09:30:07;96020.56;;;14.27;80.39
57644;BME280;43474;46.510;6.686;2023-03-13T09:32:33;96012.84;;;14.20;79.55
57644;BME280;43474;46.510;6.686;2023-03-13T09:34:58;96012.88;;;14.15;84.10
57644;BME280;43474;46.510;6.686;2023-03-13T09:37:25;96020.56;;;14.21;81.47
57644;BME280;43474;46.510;6.686;2023-03-13T09:39:50;96015.00;;;14.18;81.60
57644;BME280;43474;46.510;6.686;2023-03-13T09:42:17;96008.31;;;14.20;79.20
57644;BME280;43474;46.510;6.686;2023-03-13T09:45:33;96006.47;;;14.01;82.05
57644;BME280;43474;46.510;6.686;2023-03-13T09:48:17;95995.31;;;13.88;86.34
57644;BME280;43474;46.510;6.686;2023-03-13T09:51:05;95996.13;;;13.89;80.63
57644;BME280;43474;46.510;6.686;2023-03-13T09:53:45;95992.38;;;13.80;83.48
57644;BME280;43474;46.510;6.686;2023-03-13T09:56:22;95997.44;;;13.76;81.72
57644;BME280;43474;46.510;6.686;2023-03-13T09:58:58;95991.31;;;13.76;81.33
57644;BME280;43474;46.510;6.686;2023-03-13T10:01:28;95985.94;;;14.21;81.62
57644;BME280;43474;46.510;6.686;2023-03-13T10:04:01;95980.53;;;14.62;84.27
57644;BME280;43474;46.510;6.686;2023-03-13T10:06:34;95968.63;;;14.94;74.38
57644;BME280;43474;46.510;6.686;2023-03-13T10:09:00;95961.59;;;15.13;82.61
57644;BME280;43474;46.510;6.686;2023-03-13T10:11:29;95974.31;;;16.77;77.24
57644;BME280;43474;46.510;6.686;2023-03-13T10:14:27;95973.16;;;17.26;70.83
57644;BME280;43474;46.510;6.686;2023-03-13T10:19:57;95962.97;;;16.13;71.53
57644;BME280;43474;46.510;6.686;2023-03-13T10:22:26;95964.97;;;16.26;73.35
57644;BME280;43474;46.510;6.686;2023-03-13T10:24:59;95951.75;;;16.11;74.78
57644;BME280;43474;46.510;6.686;2023-03-13T10:27:26;95932.13;;;16.21;73.94
57644;BME280;43474;46.510;6.686;2023-03-13T10:29:52;95938.22;;;16.02;73.19
57644;BME280;43474;46.510;6.686;2023-03-13T10:32:18;95922.22;;;15.68;73.80
57644;BME280;43474;46.510;6.686;2023-03-13T10:34:49;95930.81;;;16.66;71.42
57644;BME280;43474;46.510;6.686;2023-03-13T10:37:18;95929.28;;;17.03;67.27
57644;BME280;43474;46.510;6.686;2023-03-13T10:39:44;95917.63;;;17.31;71.13
57644;BME280;43474;46.510;6.686;2023-03-13T10:42:19;95904.31;;;17.08;68.45
57644;BME280;43474;46.510;6.686;2023-03-13T10:44:46;95908.59;;;17.09;68.66
57644;BME280;43474;46.510;6.686;2023-03-13T10:47:13;95901.31;;;17.47;66.41
57644;BME280;43474;46.510;6.686;2023-03-13T10:49:48;95897.44;;;17.53;69.90
57644;BME280;43474;46.510;6.686;2023-03-13T10:52:29;95890.22;;;17.53;68.13
57644;BME280;43474;46.510;6.686;2023-03-13T10:55:03;95878.81;;;18.08;67.21
57644;BME280;43474;46.510;6.686;2023-03-13T10:57:32;95880.50;;;18.45;63.75
57644;BME280;43474;46.510;6.686;2023-03-13T10:59:58;95859.94;;;18.13;67.25
57644;BME280;43474;46.510;6.686;2023-03-13T11:02:36;95867.47;;;17.83;65.37
57644;BME280;43474;46.510;6.686;2023-03-13T11:07:47;95852.09;;;18.17;66.52
57644;BME280;43474;46.510;6.686;2023-03-13T11:12:44;95835.91;;;17.94;66.12
57644;BME280;43474;46.510;6.686;2023-03-13T11:15:24;95844.44;;;17.36;63.63
57644;BME280;43474;46.510;6.686;2023-03-13T11:18:02;95836.59;;;17.40;65.56
57644;BME280;43474;46.510;6.686;2023-03-13T11:20:36;95829.09;;;17.55;63.66
57644;BME280;43474;46.510;6.686;2023-03-13T11:31:23;95837.34;;;18.69;61.98
57644;BME280;43474;46.510;6.686;2023-03-13T11:34:01;95825.22;;;18.94;62.75
57644;BME280;43474;46.510;6.686;2023-03-13T11:47:58;95811.59;;;19.58;57.62
57644;BME280;43474;46.510;6.686;2023-03-13T11:50:34;95805.72;;;19.25;58.19
57644;BME280;43474;46.510;6.686;2023-03-13T11:53:12;95806.66;;;19.51;62.83
57644;BME280;43474;46.510;6.686;2023-03-13T11:56:26;95808.81;;;19.41;60.42
57644;BME280;43474;46.510;6.686;2023-03-13T12:01:05;95793.16;;;19.65;62.78
57644;BME280;43474;46.510;6.686;2023-03-13T12:03:38;95784.44;;;19.99;60.41
57644;BME280;43474;46.510;6.686;2023-03-13T12:06:33;95773.63;;;20.39;60.03
57644;BME280;43474;46.510;6.686;2023-03-13T12:09:22;95756.34;;;20.31;59.30
57644;BME280;43474;46.510;6.686;2023-03-13T12:14:42;95742.09;;;20.39;55.66
57644;BME280;43474;46.510;6.686;2023-03-13T12:17:14;95721.81;;;20.16;58.47
57644;BME280;43474;46.510;6.686;2023-03-13T12:20:12;95697.44;;;20.21;60.82
57644;BME280;43474;46.510;6.686;2023-03-13T12:22:54;95700.28;;;20.42;57.58
57644;BME280;43474;46.510;6.686;2023-03-13T12:25:24;95688.59;;;20.47;57.50
57644;BME280;43474;46.510;6.686;2023-03-13T12:27:52;95687.66;;;20.34;54.58
57644;BME280;43474;46.510;6.686;2023-03-13T12:31:00;95683.06;;;20.52;57.04
57644;BME280;43474;46.510;6.686;2023-03-13T12:33:28;95671.78;;;20.24;59.48
57644;BME280;43474;46.510;6.686;2023-03-13T12:36:08;95662.94;;;20.06;58.40
57644;BME280;43474;46.510;6.686;2023-03-13T12:38:45;95662.31;;;20.00;60.80
57644;BME280;43474;46.510;6.686;2023-03-13T12:41:30;95652.28;;;19.83;58.44
57644;BME280;43474;46.510;6.686;2023-03-13T12:43:57;95652.97;;;19.89;56.56
57644;BME280;43474;46.510;6.686;2023-03-13T13:00:28;95573.53;;;20.18;57.25
57644;BME280;43474;46.510;6.686;2023-03-13T13:06:08;95545.63;;;20.48;55.58
57644;BME280;43474;46.510;6.686;2023-03-13T13:14:52;95534.00;;;20.01;59.02
57644;BME280;43474;46.510;6.686;2023-03-13T13:32:40;95500.19;;;20.38;62.56
57644;BME280;43474;46.510;6.686;2023-03-13T13:37:41;95475.09;;;20.63;63.58
57644;BME280;43474;46.510;6.686;2023-03-13T13:40:28;95489.50;;;20.68;62.68
57644;BME280;43474;46.510;6.686;2023-03-13T13:43:20;95467.09;;;20.55;58.45
57644;BME280;43474;46.510;6.686;2023-03-13T13:46:14;95481.41;;;20.21;58.29
57644;BME280;43474;46.510;6.686;2023-03-13T13:48:42;95466.78;;;19.75;58.01
57644;BME280;43474;46.510;6.686;2023-03-13T13:58:55;95435.59;;;20.00;58.18
57644;BME280;43474;46.510;6.686;2023-03-13T14:01:21;95416.22;;;19.59;60.34
57644;BME280;43474;46.510;6.686;2023-03-13T14:03:49;95414.44;;;19.72;64.89
57644;BME280;43474;46.510;6.686;2023-03-13T14:06:27;95419.47;;;19.82;59.66
57644;BME280;43474;46.510;6.686;2023-03-13T14:09:12;95421.09;;;19.40;58.21
57644;BME280;43474;46.510;6.686;2023-03-13T14:11:40;95386.16;;;19.40;59.22
57644;BME280;43474;46.510;6.686;2023-03-13T14:14:17;95406.72;;;19.36;59.95
57644;BME280;43474;46.510;6.686;2023-03-13T14:16:45;95381.13;;;19.13;61.01
57644;BME280;43474;46.510;6.686;2023-03-13T14:19:33;95393.44;;;19.22;58.37
57644;BME280;43474;46.510;6.686;2023-03-13T14:22:05;95393.75;;;19.03;60.07
57644;BME280;43474;46.510;6.686;2023-03-13T14:24:31;95367.22;;;19.10;60.38
57644;BME280;43474;46.510;6.686;2023-03-13T14:26:57;95357.09;;;19.07;61.70
57644;BME280;43474;46.510;6.686;2023-03-13T14:29:22;95345.56;;;19.24;61.28
57644;BME280;43474;46.510;6.686;2023-03-13T14:31:56;95334.63;;;19.47;58.17
57644;BME280;43474;46.510;6.686;2023-03-13T14:34:23;95323.06;;;19.55;60.94
57644;BME280;43474;46.510;6.686;2023-03-13T14:36:54;95321.81;;;19.70;62.45
57644;BME280;43474;46.510;6.686;2023-03-13T14:39:35;95313.56;;;19.75;59.27